createdAt,value
2022-11-24T00:01:53.392Z,14.30
2022-11-24T00:04:32.171Z,14.50
2022-11-24T00:07:11.934Z,14.50
2022-11-24T00:09:49.276Z,14.50
2022-11-24T00:12:27.066Z,14.60
2022-11-24T00:15:03.022Z,14.50
2022-11-24T00:17:40.562Z,14.70
2022-11-24T00:20:19.571Z,14.80
2022-11-24T00:22:57.749Z,14.90
2022-11-24T00:25:34.710Z,14.70
2022-11-24T00:28:10.439Z,14.60
2022-11-24T00:30:46.997Z,14.40
2022-11-24T00:33:27.298Z,14.60
2022-11-24T00:36:09.459Z,14.70
2022-11-24T00:38:53.076Z,14.90
2022-11-24T00:41:30.320Z,15.00
2022-11-24T00:44:17.380Z,15.00
2022-11-24T00:46:57.411Z,14.90
2022-11-24T00:49:34.962Z,14.80
2022-11-24T00:52:12.290Z,14.80
2022-11-24T00:54:51.560Z,14.90
2022-11-24T00:57:29.144Z,14.90
2022-11-24T01:00:07.965Z,14.80
2022-11-24T01:02:45.587Z,14.80
2022-11-24T01:05:35.465Z,14.70
2022-11-24T01:08:20.724Z,14.70
2022-11-24T01:11:11.076Z,14.70
2022-11-24T01:13:55.438Z,14.70
2022-11-24T01:16:40.403Z,14.70
2022-11-24T01:19:18.428Z,14.80
2022-11-24T01:22:02.182Z,14.80
2022-11-24T01:24:45.988Z,15.00
2022-11-24T01:27:32.011Z,14.90
2022-11-24T01:30:10.764Z,14.90
2022-11-24T01:32:52.641Z,14.80
2022-11-24T01:35:35.814Z,14.80
2022-11-24T01:38:14.704Z,15.10
2022-11-24T01:40:54.159Z,15.20
2022-11-24T01:43:43.535Z,15.10
2022-11-24T01:46:28.240Z,15.10
2022-11-24T01:49:12.079Z,15.20
2022-11-24T01:51:53.933Z,15.40
2022-11-24T01:54:35.382Z,15.40
2022-11-24T01:57:18.042Z,15.40
2022-11-24T01:59:59.943Z,15.40
2022-11-24T02:02:50.652Z,15.60
2022-11-24T02:05:40.400Z,15.80
2022-11-24T02:08:24.672Z,15.90
2022-11-24T02:11:07.676Z,16.10
2022-11-24T02:13:51.860Z,16.40
2022-11-24T02:16:43.236Z,16.50
2022-11-24T02:19:30.560Z,16.70
2022-11-24T02:22:20.733Z,17.10
2022-11-24T02:25:05.244Z,17.70
2022-11-24T02:27:56.398Z,18.00
2022-11-24T02:30:35.474Z,18.70
2022-11-24T02:33:15.134Z,18.90
2022-11-24T02:35:58.720Z,18.80
2022-11-24T02:38:40.079Z,18.70
2022-11-24T02:41:21.655Z,18.70
2022-11-24T02:44:17.406Z,18.80
2022-11-24T02:46:57.498Z,19.00
2022-11-24T02:49:37.755Z,19.30
2022-11-24T02:52:15.668Z,19.20
2022-11-24T02:54:55.997Z,19.50
2022-11-24T02:57:45.519Z,19.90
2022-11-24T03:00:33.261Z,20.50
2022-11-24T03:03:10.708Z,20.00
2022-11-24T03:05:52.744Z,20.50
2022-11-24T03:08:31.355Z,20.30
2022-11-24T03:11:11.411Z,20.00
2022-11-24T03:13:54.468Z,20.00
2022-11-24T03:16:41.702Z,20.20
2022-11-24T03:19:24.739Z,20.30
2022-11-24T03:22:01.833Z,19.70
2022-11-24T03:24:40.330Z,19.40
2022-11-24T03:27:17.608Z,19.60
2022-11-24T03:29:55.498Z,19.30
2022-11-24T03:32:39.550Z,18.70
2022-11-24T03:35:22.268Z,19.10
2022-11-24T03:38:01.706Z,19.60
2022-11-24T03:40:39.786Z,19.80
2022-11-24T03:43:18.322Z,19.60
2022-11-24T03:46:08.034Z,19.50
2022-11-24T03:48:51.505Z,19.90
2022-11-24T03:51:28.656Z,19.50
2022-11-24T03:54:09.363Z,19.80
2022-11-24T03:56:49.949Z,19.60
2022-11-24T03:59:30.579Z,19.40
2022-11-24T04:02:18.230Z,19.10
2022-11-24T04:05:09.133Z,18.90
2022-11-24T04:08:00.560Z,19.20
2022-11-24T04:10:47.752Z,19.10
2022-11-24T04:13:26.013Z,19.00
2022-11-24T04:16:15.226Z,18.90
2022-11-24T04:18:52.985Z,18.90
2022-11-24T04:21:36.539Z,19.50
2022-11-24T04:24:16.865Z,19.80
2022-11-24T04:27:02.511Z,20.00
2022-11-24T04:29:44.394Z,20.00
2022-11-24T04:32:24.259Z,19.60
2022-11-24T04:35:17.815Z,19.20
2022-11-24T04:38:12.653Z,19.10
2022-11-24T04:40:52.686Z,19.00
2022-11-24T04:43:40.384Z,19.10
2022-11-24T04:46:22.062Z,19.10
2022-11-24T04:49:00.764Z,19.00
2022-11-24T04:51:39.621Z,18.90
2022-11-24T04:54:22.412Z,18.50
2022-11-24T04:57:04.334Z,18.40
2022-11-24T04:59:52.658Z,18.70
2022-11-24T05:02:40.000Z,18.60
2022-11-24T05:05:28.121Z,18.60
2022-11-24T05:08:09.325Z,18.50
2022-11-24T05:10:57.073Z,18.30
2022-11-24T05:13:45.139Z,18.30
2022-11-24T05:16:31.371Z,18.40
2022-11-24T05:19:08.879Z,18.40
2022-11-24T05:21:59.946Z,18.40
2022-11-24T05:24:38.340Z,18.30
2022-11-24T05:27:20.782Z,18.20
2022-11-24T05:30:10.973Z,18.40
2022-11-24T05:32:49.155Z,18.30
2022-11-24T05:35:29.706Z,18.20
2022-11-24T05:38:10.410Z,18.10
2022-11-24T05:41:09.362Z,18.20
2022-11-24T05:43:51.927Z,18.20
2022-11-24T05:46:41.713Z,18.30
2022-11-24T05:49:20.404Z,18.30
2022-11-24T05:52:04.235Z,18.20
2022-11-24T05:54:47.281Z,18.20
2022-11-24T05:57:32.515Z,18.30
2022-11-24T06:00:20.312Z,18.20
2022-11-24T06:02:59.626Z,18.10
2022-11-24T06:05:50.745Z,18.00
2022-11-24T06:08:31.005Z,18.00
2022-11-24T06:11:25.608Z,18.00
2022-11-24T06:14:14.973Z,18.00
2022-11-24T06:16:59.939Z,17.90
2022-11-24T06:19:42.510Z,17.90
2022-11-24T06:22:20.965Z,17.90
2022-11-24T06:25:00.997Z,17.70
2022-11-24T06:27:44.016Z,17.70
2022-11-24T06:30:24.768Z,17.70
2022-11-24T06:33:11.031Z,17.60
2022-11-24T06:35:48.972Z,17.70
2022-11-24T06:38:29.962Z,17.60
2022-11-24T06:41:16.514Z,17.50
2022-11-24T06:44:07.420Z,17.60
2022-11-24T06:46:51.522Z,17.50
2022-11-24T06:49:51.557Z,17.50
2022-11-24T06:52:35.320Z,17.50
2022-11-24T06:55:23.703Z,17.50
2022-11-24T06:58:08.899Z,17.40
2022-11-24T07:00:48.017Z,17.40
2022-11-24T07:03:30.259Z,17.40
2022-11-24T07:06:17.922Z,17.40
2022-11-24T07:08:59.689Z,17.40
2022-11-24T07:11:39.040Z,17.50
2022-11-24T07:14:19.598Z,17.50
2022-11-24T07:17:02.769Z,17.40
2022-11-24T07:19:41.389Z,17.40
2022-11-24T07:22:21.551Z,17.50
2022-11-24T07:25:00.143Z,17.50
2022-11-24T07:27:40.629Z,17.50
2022-11-24T07:30:18.722Z,17.50
2022-11-24T07:33:18.105Z,17.50
2022-11-24T07:35:57.494Z,17.50
2022-11-24T07:38:40.083Z,17.50
2022-11-24T07:41:19.745Z,17.40
2022-11-24T07:43:57.592Z,17.40
2022-11-24T07:46:37.275Z,17.40
2022-11-24T07:49:19.160Z,17.30
2022-11-24T07:51:58.134Z,17.20
2022-11-24T07:54:39.650Z,17.30
2022-11-24T07:57:18.277Z,17.30
2022-11-24T08:00:01.228Z,17.40
2022-11-24T08:02:41.660Z,17.30
2022-11-24T08:05:28.065Z,17.30
2022-11-24T08:08:08.466Z,17.30
2022-11-24T08:11:03.444Z,17.30
2022-11-24T08:13:42.310Z,17.30
2022-11-24T08:16:20.758Z,17.30
2022-11-24T08:19:07.575Z,17.30
2022-11-24T08:21:51.027Z,17.30
2022-11-24T08:24:30.821Z,17.30
2022-11-24T08:27:10.674Z,17.30
2022-11-24T08:29:54.902Z,17.40
2022-11-24T08:32:36.572Z,17.50
2022-11-24T08:35:15.893Z,17.40
2022-11-24T08:38:00.307Z,17.30
2022-11-24T08:40:42.159Z,17.30
2022-11-24T08:43:27.086Z,17.30
2022-11-24T08:46:20.665Z,17.30
2022-11-24T08:49:04.607Z,17.20
2022-11-24T08:51:48.929Z,17.10
2022-11-24T08:54:28.011Z,17.20
2022-11-24T08:57:15.971Z,17.10
2022-11-24T09:00:09.230Z,17.20
2022-11-24T09:02:55.421Z,17.10
2022-11-24T09:05:53.282Z,17.00
2022-11-24T09:08:41.727Z,16.90
2022-11-24T09:11:28.897Z,17.00
2022-11-24T09:14:19.654Z,17.00
2022-11-24T09:17:00.562Z,16.90
2022-11-24T09:19:45.201Z,16.90
2022-11-24T09:22:30.034Z,17.00
2022-11-24T09:25:28.646Z,17.00
2022-11-24T09:28:06.825Z,17.00
2022-11-24T09:30:49.300Z,17.00
2022-11-24T09:33:40.752Z,17.00
2022-11-24T09:36:22.579Z,17.00
2022-11-24T09:39:07.433Z,17.00
2022-11-24T09:42:01.481Z,16.90
2022-11-24T09:45:49.049Z,16.90
2022-11-24T09:48:38.399Z,16.90
2022-11-24T09:51:19.178Z,16.80
2022-11-24T09:54:09.103Z,16.90
2022-11-24T09:56:53.316Z,16.80
2022-11-24T09:59:38.030Z,16.80
2022-11-24T10:02:23.924Z,16.80
2022-11-24T10:05:16.527Z,16.70
2022-11-24T10:08:19.801Z,16.70
2022-11-24T10:11:04.294Z,16.80
2022-11-24T10:14:10.613Z,16.70
2022-11-24T10:16:58.972Z,16.70
2022-11-24T10:19:55.936Z,16.70
2022-11-24T10:22:52.186Z,16.70
2022-11-24T10:25:39.118Z,16.70
2022-11-24T10:28:29.834Z,16.60
2022-11-24T10:31:45.549Z,16.70
2022-11-24T10:34:34.535Z,16.70
2022-11-24T10:37:20.800Z,16.60
2022-11-24T10:40:26.979Z,16.50
2022-11-24T10:43:26.057Z,16.60
2022-11-24T10:46:17.658Z,16.40
2022-11-24T10:49:06.267Z,16.40
2022-11-24T10:52:07.606Z,16.40
2022-11-24T10:55:06.757Z,16.50
2022-11-24T10:57:52.304Z,16.50
2022-11-24T11:00:46.905Z,16.50
2022-11-24T11:03:40.717Z,16.40
2022-11-24T11:06:46.668Z,16.50
2022-11-24T11:09:33.031Z,16.40
2022-11-24T11:12:47.371Z,16.30
2022-11-24T11:15:37.412Z,16.40
2022-11-24T11:18:24.386Z,16.40
2022-11-24T11:21:05.326Z,16.20
2022-11-24T11:23:51.321Z,16.20
2022-11-24T11:26:50.860Z,16.10
2022-11-24T11:36:19.026Z,16.00
2022-11-24T11:38:59.747Z,15.80
2022-11-24T11:41:40.802Z,15.80
2022-11-24T11:44:57.992Z,15.70
2022-11-24T11:47:50.991Z,15.70
2022-11-24T11:51:14.861Z,15.70
2022-11-24T11:53:55.049Z,15.50
2022-11-24T11:56:36.223Z,15.60
2022-11-24T11:59:49.250Z,15.60
2022-11-24T12:03:03.615Z,15.60
2022-11-24T12:05:57.070Z,15.50
2022-11-24T12:09:19.285Z,15.60
2022-11-24T12:12:38.797Z,15.50
2022-11-24T12:15:31.520Z,15.30
2022-11-24T12:18:55.939Z,15.30
2022-11-24T12:21:42.505Z,15.20
2022-11-24T12:24:40.027Z,15.10
2022-11-24T12:30:49.169Z,15.10
2022-11-24T12:33:55.349Z,15.10
2022-11-24T12:37:10.347Z,15.00
2022-11-24T12:39:57.919Z,15.10
2022-11-24T12:46:06.087Z,15.10
2022-11-24T12:49:00.031Z,15.10
2022-11-24T12:51:46.994Z,15.00
2022-11-24T12:54:27.631Z,15.00
2022-11-24T12:57:16.126Z,15.10
2022-11-24T13:00:13.584Z,15.10
2022-11-24T13:03:19.178Z,15.10
2022-11-24T13:06:06.826Z,15.10
2022-11-24T13:08:46.862Z,15.10
2022-11-24T13:11:47.440Z,15.10
2022-11-24T13:14:33.733Z,15.20
2022-11-24T13:17:43.512Z,15.20
2022-11-24T13:20:44.843Z,15.20
2022-11-24T13:23:40.864Z,15.30
2022-11-24T13:26:44.030Z,15.30
2022-11-24T13:29:44.959Z,15.30
2022-11-24T13:32:57.118Z,15.30
2022-11-24T13:36:03.180Z,15.30
2022-11-24T13:39:07.900Z,15.30
2022-11-24T13:42:42.313Z,15.30
2022-11-24T13:46:07.072Z,15.30
2022-11-24T13:49:15.441Z,15.10
2022-11-24T13:52:26.968Z,15.10
2022-11-24T13:55:12.939Z,15.10
2022-11-24T13:58:00.846Z,15.10
2022-11-24T14:00:45.868Z,15.20
2022-11-24T14:03:32.614Z,15.20
2022-11-24T14:06:13.090Z,15.20
2022-11-24T14:08:55.577Z,15.10
2022-11-24T14:11:41.952Z,14.80
2022-11-24T14:14:38.483Z,14.70
2022-11-24T14:20:59.856Z,14.80
2022-11-24T14:23:45.538Z,14.70
2022-11-24T14:26:40.887Z,14.80
2022-11-24T14:29:39.513Z,14.90
2022-11-24T14:32:36.574Z,14.70
2022-11-24T14:35:33.142Z,14.70
2022-11-24T14:38:25.380Z,14.70
2022-11-24T14:41:35.615Z,14.70
2022-11-24T14:44:35.712Z,14.70
2022-11-24T14:47:30.553Z,14.70
2022-11-24T14:50:29.592Z,14.80
2022-11-24T14:53:26.082Z,14.80
2022-11-24T14:56:32.008Z,14.90
2022-11-24T14:59:36.244Z,15.00
2022-11-24T15:02:51.315Z,14.90
2022-11-24T15:05:35.566Z,14.90
2022-11-24T15:08:24.106Z,14.90
2022-11-24T15:11:16.965Z,14.90
2022-11-24T15:14:02.582Z,14.80
2022-11-24T15:16:57.224Z,14.80
2022-11-24T15:19:49.869Z,14.80
2022-11-24T15:22:51.082Z,14.80
2022-11-24T15:25:55.056Z,14.60
2022-11-24T15:28:39.289Z,14.50
2022-11-24T15:31:23.615Z,14.50
2022-11-24T15:34:11.117Z,14.50
2022-11-24T15:37:00.786Z,14.50
2022-11-24T15:39:41.092Z,14.50
2022-11-24T15:42:31.792Z,14.50
2022-11-24T15:45:10.930Z,14.40
2022-11-24T15:47:50.924Z,14.50
2022-11-24T15:50:33.863Z,14.50
2022-11-24T15:53:29.233Z,14.50
2022-11-24T15:56:12.826Z,14.60
2022-11-24T15:58:52.968Z,14.70
2022-11-24T16:01:34.781Z,14.80
2022-11-24T16:04:17.764Z,14.80
2022-11-24T16:07:07.947Z,14.80
2022-11-24T16:09:49.369Z,14.80
2022-11-24T16:12:34.674Z,14.60
2022-11-24T16:15:37.507Z,14.70
2022-11-24T16:18:22.513Z,14.50
2022-11-24T16:21:00.018Z,14.50
2022-11-24T16:23:41.965Z,14.60
2022-11-24T16:26:28.012Z,14.60
2022-11-24T16:29:05.903Z,14.60
2022-11-24T16:32:03.170Z,14.70
2022-11-24T16:34:45.595Z,14.70
2022-11-24T16:37:25.490Z,14.70
2022-11-24T16:40:09.963Z,14.60
2022-11-24T16:42:51.004Z,14.60
2022-11-24T16:45:38.458Z,14.50
2022-11-24T16:48:24.492Z,14.60
2022-11-24T16:51:16.499Z,14.70
2022-11-24T16:54:10.019Z,14.70
2022-11-24T16:57:02.631Z,14.60
2022-11-24T16:59:57.168Z,14.60
2022-11-24T17:02:46.266Z,14.60
2022-11-24T17:05:23.724Z,14.60
2022-11-24T17:08:05.146Z,14.60
2022-11-24T17:10:50.374Z,14.70
2022-11-24T17:13:37.381Z,14.50
2022-11-24T17:16:18.882Z,14.60
2022-11-24T17:19:00.288Z,14.60
2022-11-24T17:21:52.387Z,14.70
2022-11-24T17:24:35.665Z,14.90
2022-11-24T17:27:18.493Z,14.90
2022-11-24T17:29:59.149Z,14.80
2022-11-24T17:32:38.522Z,14.80
2022-11-24T17:35:17.525Z,14.90
2022-11-24T17:37:58.659Z,14.90
2022-11-24T17:40:45.215Z,14.90
2022-11-24T17:43:25.653Z,14.70
2022-11-24T17:46:09.392Z,14.70
2022-11-24T17:48:51.886Z,14.90
2022-11-24T17:51:32.739Z,15.00
2022-11-24T17:54:45.824Z,15.00
2022-11-24T17:57:14.058Z,14.80
2022-11-24T18:00:07.802Z,14.70
2022-11-24T18:02:52.470Z,14.60
2022-11-24T18:05:32.613Z,14.70
2022-11-24T18:08:09.745Z,14.70
2022-11-24T18:10:48.404Z,14.70
2022-11-24T18:13:54.524Z,14.70
2022-11-24T18:16:22.231Z,14.60
2022-11-24T18:19:11.862Z,14.60
2022-11-24T18:21:48.863Z,14.50
2022-11-24T18:24:26.059Z,14.50
2022-11-24T18:27:01.966Z,14.50
2022-11-24T18:29:38.007Z,14.60
2022-11-24T18:32:16.624Z,14.60
2022-11-24T18:34:56.464Z,14.50
2022-11-24T18:37:35.555Z,14.50
2022-11-24T18:40:14.219Z,14.60
2022-11-24T18:42:51.253Z,14.60
2022-11-24T18:45:27.420Z,14.60
2022-11-24T18:48:04.305Z,14.60
2022-11-24T18:50:43.835Z,14.60
2022-11-24T18:53:20.804Z,14.70
2022-11-24T18:56:04.430Z,14.70
2022-11-24T18:58:41.960Z,14.70
2022-11-24T19:01:23.199Z,14.70
2022-11-24T19:04:01.215Z,14.70
2022-11-24T19:06:42.228Z,14.70
2022-11-24T19:09:24.129Z,14.80
2022-11-24T19:12:01.817Z,14.80
2022-11-24T19:14:38.917Z,14.70
2022-11-24T19:17:16.922Z,14.80
2022-11-24T19:19:54.193Z,14.70
2022-11-24T19:22:33.030Z,14.80
2022-11-24T19:25:09.687Z,14.80
2022-11-24T19:27:47.122Z,14.80
2022-11-24T19:30:24.785Z,14.80
2022-11-24T19:33:01.906Z,14.80
2022-11-24T19:35:38.374Z,14.80
2022-11-24T19:38:16.910Z,14.80
2022-11-24T19:40:52.955Z,14.80
2022-11-24T19:43:28.655Z,14.80
2022-11-24T19:46:08.187Z,14.80
2022-11-24T19:48:46.727Z,14.80
2022-11-24T19:51:24.389Z,14.80
2022-11-24T19:54:02.543Z,14.70
2022-11-24T19:56:39.509Z,14.70
2022-11-24T19:59:18.692Z,14.80
2022-11-24T20:01:55.539Z,14.80
2022-11-24T20:04:31.097Z,14.70
2022-11-24T20:07:07.118Z,14.70
2022-11-24T20:09:45.888Z,14.80
2022-11-24T20:12:21.584Z,14.80
2022-11-24T20:14:56.470Z,14.90
2022-11-24T20:17:34.186Z,14.90
2022-11-24T20:20:09.723Z,14.70
2022-11-24T20:22:44.688Z,14.70
2022-11-24T20:25:21.494Z,14.70
2022-11-24T20:27:57.303Z,14.90
2022-11-24T20:30:31.599Z,14.90
2022-11-24T20:33:05.934Z,14.80
2022-11-24T20:35:40.963Z,14.70
2022-11-24T20:38:15.592Z,14.70
2022-11-24T20:40:51.657Z,14.70
2022-11-24T20:43:26.453Z,14.70
2022-11-24T20:46:00.854Z,14.60
2022-11-24T20:48:35.050Z,14.60
2022-11-24T20:51:09.972Z,14.60
2022-11-24T20:53:45.460Z,14.60
2022-11-24T20:56:23.474Z,14.60
2022-11-24T20:58:58.938Z,14.60
2022-11-24T21:01:36.593Z,14.70
2022-11-24T21:04:13.211Z,14.60
2022-11-24T21:06:49.284Z,14.60
2022-11-24T21:09:24.772Z,14.60
2022-11-24T21:12:01.706Z,14.60
2022-11-24T21:14:36.351Z,14.60
2022-11-24T21:17:11.420Z,14.70
2022-11-24T21:19:45.734Z,14.60
2022-11-24T21:22:22.162Z,14.70
2022-11-24T21:24:57.610Z,14.70
2022-11-24T21:27:34.701Z,14.70
2022-11-24T21:30:09.476Z,14.70
2022-11-24T21:32:43.968Z,14.70
2022-11-24T21:35:18.559Z,14.70
2022-11-24T21:37:53.165Z,14.60
2022-11-24T21:40:27.358Z,14.70
2022-11-24T21:43:05.058Z,14.70
2022-11-24T21:45:42.101Z,14.70
2022-11-24T21:48:17.459Z,14.70
2022-11-24T21:50:53.354Z,14.70
2022-11-24T21:53:29.253Z,14.70
2022-11-24T21:56:06.578Z,14.60
2022-11-24T21:58:43.370Z,14.60
2022-11-24T22:01:18.209Z,14.60
2022-11-24T22:03:53.222Z,14.50
2022-11-24T22:06:28.452Z,14.60
2022-11-24T22:09:03.612Z,14.50
2022-11-24T22:11:39.205Z,14.60
2022-11-24T22:14:17.285Z,14.60
2022-11-24T22:16:53.265Z,14.60
2022-11-24T22:19:29.661Z,14.50
2022-11-24T22:22:05.502Z,14.50
2022-11-24T22:24:41.877Z,14.60
2022-11-24T22:27:18.775Z,14.50
2022-11-24T22:29:58.966Z,14.50
2022-11-24T22:32:33.881Z,14.50
2022-11-24T22:35:10.834Z,14.50
2022-11-24T22:37:47.115Z,14.40
2022-11-24T22:40:25.245Z,14.30
2022-11-24T22:43:01.175Z,14.30
2022-11-24T22:45:41.809Z,14.50
2022-11-24T22:48:18.278Z,14.50
2022-11-24T22:50:55.811Z,14.50
2022-11-24T22:53:33.022Z,14.50
2022-11-24T22:56:11.250Z,14.50
2022-11-24T22:58:48.304Z,14.50
2022-11-24T23:01:29.881Z,14.50
2022-11-24T23:04:06.170Z,14.50
2022-11-24T23:06:43.494Z,14.60
2022-11-24T23:09:21.017Z,14.70
2022-11-24T23:11:57.925Z,14.70
2022-11-24T23:14:34.438Z,14.70
2022-11-24T23:17:14.119Z,14.80
2022-11-24T23:19:50.719Z,14.80
2022-11-24T23:22:27.310Z,14.60
2022-11-24T23:25:03.919Z,14.50
2022-11-24T23:27:40.622Z,14.70
2022-11-24T23:30:18.054Z,14.70
2022-11-24T23:32:58.990Z,14.70
2022-11-24T23:35:36.451Z,14.70
2022-11-24T23:38:12.571Z,14.70
2022-11-24T23:40:49.848Z,14.80
2022-11-24T23:43:26.156Z,14.80
2022-11-24T23:46:07.351Z,14.90
2022-11-24T23:48:48.933Z,15.00
2022-11-24T23:51:26.789Z,15.00
2022-11-24T23:54:03.498Z,15.10
2022-11-24T23:56:39.112Z,15.10
2022-11-24T23:59:18.827Z,15.00
